sensor_id;sensor_type;location;lat;lon;timestamp;pressure;altitude;pressure_sealevel;temperature;humidity
51081;BME280;37130;55.670;37.596;2023-09-07T00:02:14;99914.06;;;9.80;67.75
51081;BME280;37130;55.670;37.596;2023-09-07T00:04:41;99921.91;;;9.81;68.46
51081;BME280;37130;55.670;37.596;2023-09-07T00:07:10;99920.22;;;9.80;68.51
51081;BME280;37130;55.670;37.596;2023-09-07T00:09:38;99916.59;;;9.83;68.78
51081;BME280;37130;55.670;37.596;2023-09-07T00:12:05;99929.69;;;9.86;68.76
51081;BME280;37130;55.670;37.596;2023-09-07T00:14:33;99930.59;;;9.85;67.92
51081;BME280;37130;55.670;37.596;2023-09-07T00:17:00;99926.34;;;9.81;68.71
51081;BME280;37130;55.670;37.596;2023-09-07T00:19:28;99928.69;;;9.88;68.58
51081;BME280;37130;55.670;37.596;2023-09-07T00:21:57;99939.28;;;9.88;68.81
51081;BME280;37130;55.670;37.596;2023-09-07T00:24:25;99931.53;;;9.84;69.20
51081;BME280;37130;55.670;37.596;2023-09-07T00:26:52;99943.75;;;9.86;69.17
51081;BME280;37130;55.670;37.596;2023-09-07T00:29:19;99950.88;;;9.84;69.29
51081;BME280;37130;55.670;37.596;2023-09-07T00:31:47;99946.66;;;9.80;69.50
51081;BME280;37130;55.670;37.596;2023-09-07T00:34:15;99917.31;;;9.64;69.06
51081;BME280;37130;55.670;37.596;2023-09-07T00:36:42;99952.81;;;9.81;69.64
51081;BME280;37130;55.670;37.596;2023-09-07T00:39:10;99939.88;;;9.73;69.15
51081;BME280;37130;55.670;37.596;2023-09-07T00:41:37;99926.09;;;9.65;69.61
51081;BME280;37130;55.670;37.596;2023-09-07T00:44:04;99955.41;;;9.82;69.65
51081;BME280;37130;55.670;37.596;2023-09-07T00:46:32;99900.19;;;9.51;70.34
51081;BME280;37130;55.670;37.596;2023-09-07T00:49:00;99947.81;;;9.73;70.04
51081;BME280;37130;55.670;37.596;2023-09-07T00:51:28;99924.72;;;9.55;70.38
51081;BME280;37130;55.670;37.596;2023-09-07T00:53:56;99880.59;;;9.10;70.35
51081;BME280;37130;55.670;37.596;2023-09-07T00:56:26;99961.31;;;9.65;70.61
51081;BME280;37130;55.670;37.596;2023-09-07T00:58:53;99953.56;;;9.61;70.55
51081;BME280;37130;55.670;37.596;2023-09-07T01:01:25;99919.28;;;9.36;71.04
51081;BME280;37130;55.670;37.596;2023-09-07T01:03:54;99970.47;;;9.57;71.34
51081;BME280;37130;55.670;37.596;2023-09-07T01:06:30;99967.13;;;9.52;71.44
51081;BME280;37130;55.670;37.596;2023-09-07T01:09:03;99964.53;;;9.50;71.68
51081;BME280;37130;55.670;37.596;2023-09-07T01:11:37;99981.84;;;9.10;70.90
51081;BME280;37130;55.670;37.596;2023-09-07T01:14:05;99947.63;;;9.07;72.24
51081;BME280;37130;55.670;37.596;2023-09-07T01:16:33;99963.56;;;9.29;72.39
51081;BME280;37130;55.670;37.596;2023-09-07T01:19:06;99977.41;;;9.36;72.49
51081;BME280;37130;55.670;37.596;2023-09-07T01:21:35;99977.47;;;9.34;72.24
51081;BME280;37130;55.670;37.596;2023-09-07T01:24:06;99991.66;;;9.32;72.68
51081;BME280;37130;55.670;37.596;2023-09-07T01:26:35;99970.66;;;9.27;72.75
51081;BME280;37130;55.670;37.596;2023-09-07T01:29:07;99966.53;;;9.20;73.01
51081;BME280;37130;55.670;37.596;2023-09-07T01:31:37;99978.09;;;9.17;73.35
51081;BME280;37130;55.670;37.596;2023-09-07T01:34:06;99970.94;;;9.19;73.10
51081;BME280;37130;55.670;37.596;2023-09-07T01:36:34;99984.28;;;9.16;73.78
51081;BME280;37130;55.670;37.596;2023-09-07T01:39:04;99892.09;;;8.59;73.74
51081;BME280;37130;55.670;37.596;2023-09-07T01:41:34;99878.31;;;8.50;73.58
51081;BME280;37130;55.670;37.596;2023-09-07T01:44:03;99956.13;;;8.90;74.11
51081;BME280;37130;55.670;37.596;2023-09-07T01:46:31;99978.66;;;9.00;74.18
51081;BME280;37130;55.670;37.596;2023-09-07T01:48:58;99976.97;;;8.99;74.43
51081;BME280;37130;55.670;37.596;2023-09-07T01:51:26;99889.09;;;8.44;74.32
51081;BME280;37130;55.670;37.596;2023-09-07T01:53:55;99982.50;;;8.92;74.98
51081;BME280;37130;55.670;37.596;2023-09-07T01:56:22;99978.06;;;8.92;74.76
51081;BME280;37130;55.670;37.596;2023-09-07T01:58:50;99996.34;;;8.98;75.38
51081;BME280;37130;55.670;37.596;2023-09-07T02:01:26;99850.91;;;8.01;75.25
51081;BME280;37130;55.670;37.596;2023-09-07T02:03:53;99992.50;;;8.82;75.43
51081;BME280;37130;55.670;37.596;2023-09-07T02:06:21;99977.16;;;8.68;75.54
51081;BME280;37130;55.670;37.596;2023-09-07T02:08:48;100007.50;;;8.82;75.98
51081;BME280;37130;55.670;37.596;2023-09-07T02:11:16;99962.88;;;8.47;75.93
51081;BME280;37130;55.670;37.596;2023-09-07T02:13:46;100013.75;;;8.79;76.40
51081;BME280;37130;55.670;37.596;2023-09-07T02:16:13;99984.50;;;8.59;76.22
51081;BME280;37130;55.670;37.596;2023-09-07T02:18:44;99842.00;;;7.79;76.66
51081;BME280;37130;55.670;37.596;2023-09-07T02:21:15;99999.03;;;8.72;76.60
51081;BME280;37130;55.670;37.596;2023-09-07T02:23:43;100014.69;;;8.78;76.89
51081;BME280;37130;55.670;37.596;2023-09-07T02:26:11;99999.91;;;8.72;76.67
51081;BME280;37130;55.670;37.596;2023-09-07T02:28:38;99999.22;;;8.66;77.08
51081;BME280;37130;55.670;37.596;2023-09-07T02:31:06;100011.31;;;8.73;77.17
51081;BME280;37130;55.670;37.596;2023-09-07T02:33:34;100013.19;;;8.69;77.58
51081;BME280;37130;55.670;37.596;2023-09-07T02:36:04;100010.53;;;8.69;77.75
51081;BME280;37130;55.670;37.596;2023-09-07T02:38:32;99977.88;;;8.47;77.64
51081;BME280;37130;55.670;37.596;2023-09-07T02:41:01;100011.50;;;8.67;77.97
51081;BME280;37130;55.670;37.596;2023-09-07T02:43:29;100003.81;;;8.61;77.91
51081;BME280;37130;55.670;37.596;2023-09-07T02:45:58;100022.97;;;8.67;77.96
51081;BME280;37130;55.670;37.596;2023-09-07T02:48:25;100015.28;;;8.60;78.07
51081;BME280;37130;55.670;37.596;2023-09-07T02:50:52;100033.44;;;8.69;78.24
51081;BME280;37130;55.670;37.596;2023-09-07T02:53:23;100023.03;;;8.64;77.85
51081;BME280;37130;55.670;37.596;2023-09-07T02:55:50;100030.59;;;8.75;78.10
51081;BME280;37130;55.670;37.596;2023-09-07T02:58:17;100031.31;;;8.80;78.05
51081;BME280;37130;55.670;37.596;2023-09-07T03:00:46;100039.81;;;8.90;77.86
51081;BME280;37130;55.670;37.596;2023-09-07T03:03:17;99945.56;;;8.39;77.93
51081;BME280;37130;55.670;37.596;2023-09-07T03:05:46;100044.59;;;9.04;77.73
51081;BME280;37130;55.670;37.596;2023-09-07T03:08:14;100044.31;;;9.13;78.18
51081;BME280;37130;55.670;37.596;2023-09-07T03:10:42;100030.53;;;9.03;77.77
51081;BME280;37130;55.670;37.596;2023-09-07T03:13:11;100046.78;;;9.42;77.07
51081;BME280;37130;55.670;37.596;2023-09-07T03:15:39;100052.47;;;9.80;76.13
51081;BME280;37130;55.670;37.596;2023-09-07T03:18:10;100054.44;;;9.99;75.95
51081;BME280;37130;55.670;37.596;2023-09-07T03:20:39;100047.63;;;10.15;74.95
51081;BME280;37130;55.670;37.596;2023-09-07T03:23:07;100051.56;;;10.27;74.41
51081;BME280;37130;55.670;37.596;2023-09-07T03:25:35;100051.78;;;10.44;74.01
51081;BME280;37130;55.670;37.596;2023-09-07T03:28:02;100021.47;;;10.29;73.69
51081;BME280;37130;55.670;37.596;2023-09-07T03:30:33;100063.13;;;10.70;73.02
51081;BME280;37130;55.670;37.596;2023-09-07T03:33:01;100070.69;;;10.79;73.02
51081;BME280;37130;55.670;37.596;2023-09-07T03:35:30;100066.75;;;10.89;73.53
51081;BME280;37130;55.670;37.596;2023-09-07T03:37:57;100062.09;;;11.16;72.09
51081;BME280;37130;55.670;37.596;2023-09-07T03:40:26;100073.81;;;11.52;71.01
51081;BME280;37130;55.670;37.596;2023-09-07T03:42:53;100074.94;;;11.67;70.71
51081;BME280;37130;55.670;37.596;2023-09-07T03:45:20;100069.28;;;11.74;70.22
51081;BME280;37130;55.670;37.596;2023-09-07T03:47:48;100064.34;;;11.85;70.21
51081;BME280;37130;55.670;37.596;2023-09-07T03:50:17;100084.00;;;12.21;69.11
51081;BME280;37130;55.670;37.596;2023-09-07T03:52:44;99910.28;;;11.51;68.08
51081;BME280;37130;55.670;37.596;2023-09-07T03:55:12;100082.06;;;12.80;67.06
51081;BME280;37130;55.670;37.596;2023-09-07T03:57:39;100095.88;;;12.69;67.02
51081;BME280;37130;55.670;37.596;2023-09-07T04:00:08;100020.13;;;12.24;67.28
51081;BME280;37130;55.670;37.596;2023-09-07T04:02:46;100094.72;;;12.75;67.04
51081;BME280;37130;55.670;37.596;2023-09-07T04:05:14;100087.53;;;13.48;66.44
51081;BME280;37130;55.670;37.596;2023-09-07T04:07:41;100088.47;;;15.69;60.49
51081;BME280;37130;55.670;37.596;2023-09-07T04:10:09;100084.69;;;16.16;58.93
51081;BME280;37130;55.670;37.596;2023-09-07T04:12:36;100099.75;;;16.31;57.89
51081;BME280;37130;55.670;37.596;2023-09-07T04:15:04;100096.38;;;16.56;57.01
51081;BME280;37130;55.670;37.596;2023-09-07T04:17:32;100091.88;;;16.98;55.50
51081;BME280;37130;55.670;37.596;2023-09-07T04:20:08;100108.06;;;17.89;53.99
51081;BME280;37130;55.670;37.596;2023-09-07T04:22:36;100091.06;;;18.77;52.13
51081;BME280;37130;55.670;37.596;2023-09-07T04:25:03;100107.78;;;20.99;48.35
51081;BME280;37130;55.670;37.596;2023-09-07T04:27:31;100133.25;;;23.42;43.60
51081;BME280;37130;55.670;37.596;2023-09-07T04:30:02;100134.78;;;25.59;40.17
51081;BME280;37130;55.670;37.596;2023-09-07T04:32:33;100059.63;;;26.46;37.73
51081;BME280;37130;55.670;37.596;2023-09-07T04:35:02;100138.16;;;28.39;35.35
51081;BME280;37130;55.670;37.596;2023-09-07T04:37:31;100148.34;;;29.93;33.73
51081;BME280;37130;55.670;37.596;2023-09-07T04:39:58;100150.94;;;30.84;31.49
51081;BME280;37130;55.670;37.596;2023-09-07T04:42:26;100161.63;;;31.94;30.06
51081;BME280;37130;55.670;37.596;2023-09-07T04:44:54;100142.50;;;31.36;30.35
51081;BME280;37130;55.670;37.596;2023-09-07T04:47:21;100145.13;;;30.87;30.43
51081;BME280;37130;55.670;37.596;2023-09-07T04:49:49;100146.31;;;32.06;28.75
51081;BME280;37130;55.670;37.596;2023-09-07T04:52:22;100161.41;;;32.93;27.80
51081;BME280;37130;55.670;37.596;2023-09-07T04:54:49;100161.56;;;32.85;27.38
51081;BME280;37130;55.670;37.596;2023-09-07T04:57:18;100163.38;;;31.80;28.33
51081;BME280;37130;55.670;37.596;2023-09-07T04:59:47;100154.66;;;31.12;28.60
51081;BME280;37130;55.670;37.596;2023-09-07T05:02:15;100131.38;;;29.37;29.51
51081;BME280;37130;55.670;37.596;2023-09-07T05:04:42;100180.28;;;27.63;31.24
51081;BME280;37130;55.670;37.596;2023-09-07T05:07:10;100163.75;;;26.47;32.79
51081;BME280;37130;55.670;37.596;2023-09-07T05:09:38;100163.63;;;28.07;31.22
51081;BME280;37130;55.670;37.596;2023-09-07T05:12:06;100122.34;;;29.97;28.95
51081;BME280;37130;55.670;37.596;2023-09-07T05:14:33;100183.25;;;32.11;26.33
51081;BME280;37130;55.670;37.596;2023-09-07T05:17:00;100175.66;;;30.31;27.79
51081;BME280;37130;55.670;37.596;2023-09-07T05:19:28;100172.06;;;30.30;28.51
51081;BME280;37130;55.670;37.596;2023-09-07T05:21:56;100116.44;;;30.83;27.19
51081;BME280;37130;55.670;37.596;2023-09-07T05:24:23;100175.53;;;31.13;27.03
51081;BME280;37130;55.670;37.596;2023-09-07T05:26:51;100170.09;;;31.56;26.63
51081;BME280;37130;55.670;37.596;2023-09-07T05:29:19;100173.66;;;32.56;25.66
51081;BME280;37130;55.670;37.596;2023-09-07T05:31:47;100184.25;;;34.02;24.00
51081;BME280;37130;55.670;37.596;2023-09-07T05:34:15;100169.69;;;34.93;23.13
51081;BME280;37130;55.670;37.596;2023-09-07T05:36:42;100188.22;;;36.13;22.06
51081;BME280;37130;55.670;37.596;2023-09-07T05:39:10;100186.47;;;37.17;21.37
51081;BME280;37130;55.670;37.596;2023-09-07T05:41:37;100190.16;;;37.83;20.66
51081;BME280;37130;55.670;37.596;2023-09-07T05:44:04;100175.56;;;38.30;20.14
51081;BME280;37130;55.670;37.596;2023-09-07T05:46:32;100140.13;;;38.79;19.62
51081;BME280;37130;55.670;37.596;2023-09-07T05:49:00;100193.66;;;39.37;19.01
51081;BME280;37130;55.670;37.596;2023-09-07T05:51:27;100097.69;;;38.90;18.91
51081;BME280;37130;55.670;37.596;2023-09-07T05:53:55;100156.19;;;39.06;18.90
51081;BME280;37130;55.670;37.596;2023-09-07T05:56:22;100181.25;;;39.56;18.67
51081;BME280;37130;55.670;37.596;2023-09-07T05:58:50;100192.50;;;39.78;18.58
51081;BME280;37130;55.670;37.596;2023-09-07T06:01:18;100199.22;;;39.82;18.37
51081;BME280;37130;55.670;37.596;2023-09-07T06:03:46;100201.66;;;40.46;17.96
51081;BME280;37130;55.670;37.596;2023-09-07T06:06:14;100212.53;;;40.92;17.47
51081;BME280;37130;55.670;37.596;2023-09-07T06:08:41;100218.09;;;41.36;16.95
51081;BME280;37130;55.670;37.596;2023-09-07T06:11:08;100217.72;;;42.09;16.51
51081;BME280;37130;55.670;37.596;2023-09-07T06:13:36;100211.81;;;41.73;16.45
51081;BME280;37130;55.670;37.596;2023-09-07T06:16:03;100210.00;;;41.56;16.67
51081;BME280;37130;55.670;37.596;2023-09-07T06:18:30;100221.72;;;41.91;16.40
51081;BME280;37130;55.670;37.596;2023-09-07T06:20:58;100221.25;;;41.99;15.74
51081;BME280;37130;55.670;37.596;2023-09-07T06:23:25;100197.94;;;42.10;15.95
51081;BME280;37130;55.670;37.596;2023-09-07T06:25:52;100230.63;;;42.25;15.63
51081;BME280;37130;55.670;37.596;2023-09-07T06:28:20;100224.25;;;40.55;16.58
51081;BME280;37130;55.670;37.596;2023-09-07T06:30:48;100221.41;;;40.50;16.83
51081;BME280;37130;55.670;37.596;2023-09-07T06:33:16;100228.53;;;40.80;16.60
51081;BME280;37130;55.670;37.596;2023-09-07T06:35:45;100229.19;;;41.09;16.59
51081;BME280;37130;55.670;37.596;2023-09-07T06:38:12;100239.41;;;40.64;16.53
51081;BME280;37130;55.670;37.596;2023-09-07T06:40:48;100239.50;;;40.91;16.62
51081;BME280;37130;55.670;37.596;2023-09-07T06:43:17;100192.81;;;41.37;15.88
51081;BME280;37130;55.670;37.596;2023-09-07T06:45:46;100227.47;;;42.11;15.81
51081;BME280;37130;55.670;37.596;2023-09-07T06:48:14;100245.78;;;42.34;15.90
51081;BME280;37130;55.670;37.596;2023-09-07T06:50:42;100236.88;;;42.37;15.39
51081;BME280;37130;55.670;37.596;2023-09-07T06:53:09;100234.00;;;42.27;15.61
51081;BME280;37130;55.670;37.596;2023-09-07T06:55:42;100233.38;;;42.20;15.78
51081;BME280;37130;55.670;37.596;2023-09-07T06:58:09;100243.47;;;42.68;15.50
51081;BME280;37130;55.670;37.596;2023-09-07T07:00:37;100233.88;;;42.97;14.90
51081;BME280;37130;55.670;37.596;2023-09-07T07:03:04;100246.88;;;43.39;15.01
51081;BME280;37130;55.670;37.596;2023-09-07T07:05:34;100248.59;;;43.55;14.77
51081;BME280;37130;55.670;37.596;2023-09-07T07:08:02;100184.31;;;43.14;14.57
51081;BME280;37130;55.670;37.596;2023-09-07T07:10:29;100236.88;;;43.53;14.55
51081;BME280;37130;55.670;37.596;2023-09-07T07:12:57;100243.59;;;43.67;14.59
51081;BME280;37130;55.670;37.596;2023-09-07T07:15:24;100253.94;;;43.77;14.53
51081;BME280;37130;55.670;37.596;2023-09-07T07:17:52;100249.22;;;43.83;14.19
51081;BME280;37130;55.670;37.596;2023-09-07T07:20:19;100245.56;;;43.67;14.37
51081;BME280;37130;55.670;37.596;2023-09-07T07:22:47;100261.22;;;42.95;14.34
51081;BME280;37130;55.670;37.596;2023-09-07T07:25:16;100202.81;;;42.30;14.62
51081;BME280;37130;55.670;37.596;2023-09-07T07:28:15;100249.56;;;42.65;14.80
51081;BME280;37130;55.670;37.596;2023-09-07T07:30:42;100217.56;;;42.73;14.57
51081;BME280;37130;55.670;37.596;2023-09-07T07:33:10;100259.91;;;43.18;14.25
51081;BME280;37130;55.670;37.596;2023-09-07T07:35:40;100243.63;;;42.94;14.48
51081;BME280;37130;55.670;37.596;2023-09-07T07:38:08;100252.84;;;42.95;14.21
51081;BME280;37130;55.670;37.596;2023-09-07T07:40:37;100254.38;;;42.33;14.66
51081;BME280;37130;55.670;37.596;2023-09-07T07:43:04;100250.59;;;42.49;15.03
51081;BME280;37130;55.670;37.596;2023-09-07T07:45:33;100259.53;;;42.99;14.73
51081;BME280;37130;55.670;37.596;2023-09-07T07:48:05;100252.84;;;43.05;14.41
51081;BME280;37130;55.670;37.596;2023-09-07T07:50:40;100251.66;;;42.80;14.28
51081;BME280;37130;55.670;37.596;2023-09-07T07:53:11;100258.25;;;42.69;13.88
51081;BME280;37130;55.670;37.596;2023-09-07T07:55:41;100249.56;;;43.08;14.07
51081;BME280;37130;55.670;37.596;2023-09-07T07:58:13;100259.28;;;43.00;13.71
51081;BME280;37130;55.670;37.596;2023-09-07T08:00:41;100202.78;;;42.67;13.64
51081;BME280;37130;55.670;37.596;2023-09-07T08:03:12;100249.03;;;42.31;14.14
51081;BME280;37130;55.670;37.596;2023-09-07T08:05:39;100253.59;;;42.37;13.98
51081;BME280;37130;55.670;37.596;2023-09-07T08:08:08;100198.81;;;42.11;13.91
51081;BME280;37130;55.670;37.596;2023-09-07T08:10:36;100240.13;;;42.66;13.86
51081;BME280;37130;55.670;37.596;2023-09-07T08:13:06;100245.00;;;42.92;13.85
51081;BME280;37130;55.670;37.596;2023-09-07T08:15:34;100183.22;;;41.50;13.82
51081;BME280;37130;55.670;37.596;2023-09-07T08:18:04;100236.97;;;39.14;15.71
51081;BME280;37130;55.670;37.596;2023-09-07T08:20:32;100231.00;;;38.11;15.71
51081;BME280;37130;55.670;37.596;2023-09-07T08:23:00;100233.44;;;37.66;15.85
51081;BME280;37130;55.670;37.596;2023-09-07T08:25:31;100226.22;;;36.79;16.14
51081;BME280;37130;55.670;37.596;2023-09-07T08:27:59;100229.00;;;34.89;17.61
51081;BME280;37130;55.670;37.596;2023-09-07T08:30:27;100079.09;;;31.82;19.29
51081;BME280;37130;55.670;37.596;2023-09-07T08:32:54;100229.78;;;30.80;20.45
51081;BME280;37130;55.670;37.596;2023-09-07T08:35:22;100217.84;;;29.05;22.19
51081;BME280;37130;55.670;37.596;2023-09-07T08:37:54;100210.06;;;27.64;23.75
51081;BME280;37130;55.670;37.596;2023-09-07T08:40:23;100065.63;;;26.07;25.40
51081;BME280;37130;55.670;37.596;2023-09-07T08:42:50;100178.63;;;26.60;25.23
51081;BME280;37130;55.670;37.596;2023-09-07T08:45:24;100166.88;;;26.52;26.23
51081;BME280;37130;55.670;37.596;2023-09-07T08:47:54;100200.28;;;27.29;25.21
51081;BME280;37130;55.670;37.596;2023-09-07T08:50:23;100197.31;;;28.14;25.27
51081;BME280;37130;55.670;37.596;2023-09-07T08:52:52;100192.72;;;28.06;24.50
51081;BME280;37130;55.670;37.596;2023-09-07T08:55:21;100195.59;;;27.72;25.55
51081;BME280;37130;55.670;37.596;2023-09-07T08:57:48;100189.75;;;26.49;26.05
51081;BME280;37130;55.670;37.596;2023-09-07T09:00:16;100207.13;;;25.23;27.40
51081;BME280;37130;55.670;37.596;2023-09-07T09:02:46;100205.28;;;23.92;29.07
51081;BME280;37130;55.670;37.596;2023-09-07T09:05:23;100193.19;;;22.87;29.99
51081;BME280;37130;55.670;37.596;2023-09-07T09:08:02;100185.63;;;22.41;31.31
51081;BME280;37130;55.670;37.596;2023-09-07T09:10:30;100188.03;;;22.44;32.28
51081;BME280;37130;55.670;37.596;2023-09-07T09:12:58;100176.91;;;22.37;32.23
51081;BME280;37130;55.670;37.596;2023-09-07T09:15:28;100171.94;;;22.12;31.73
51081;BME280;37130;55.670;37.596;2023-09-07T09:17:55;100169.47;;;22.20;32.07
51081;BME280;37130;55.670;37.596;2023-09-07T09:20:24;100188.16;;;22.73;31.67
51081;BME280;37130;55.670;37.596;2023-09-07T09:22:54;100169.38;;;22.71;32.20
51081;BME280;37130;55.670;37.596;2023-09-07T09:25:22;100188.03;;;22.44;30.69
51081;BME280;37130;55.670;37.596;2023-09-07T09:27:49;100197.81;;;21.93;31.03
51081;BME280;37130;55.670;37.596;2023-09-07T09:30:17;100192.19;;;21.20;32.19
51081;BME280;37130;55.670;37.596;2023-09-07T09:32:46;100134.63;;;20.22;32.92
51081;BME280;37130;55.670;37.596;2023-09-07T09:35:16;100194.66;;;20.11;35.22
51081;BME280;37130;55.670;37.596;2023-09-07T09:37:48;100185.72;;;20.10;34.51
51081;BME280;37130;55.670;37.596;2023-09-07T09:40:16;100186.13;;;20.51;33.41
51081;BME280;37130;55.670;37.596;2023-09-07T09:42:47;100185.66;;;20.79;33.92
51081;BME280;37130;55.670;37.596;2023-09-07T09:45:16;100185.50;;;20.92;33.87
51081;BME280;37130;55.670;37.596;2023-09-07T09:47:44;100192.94;;;21.11;34.19
51081;BME280;37130;55.670;37.596;2023-09-07T09:50:12;100181.47;;;20.98;33.40
51081;BME280;37130;55.670;37.596;2023-09-07T09:52:40;100022.03;;;19.72;33.84
51081;BME280;37130;55.670;37.596;2023-09-07T09:55:08;100183.56;;;20.72;33.78
51081;BME280;37130;55.670;37.596;2023-09-07T09:57:40;100102.09;;;20.25;33.18
51081;BME280;37130;55.670;37.596;2023-09-07T10:00:08;100183.66;;;21.04;33.49
51081;BME280;37130;55.670;37.596;2023-09-07T10:03:02;100183.09;;;21.44;33.05
51081;BME280;37130;55.670;37.596;2023-09-07T10:05:31;100180.88;;;21.49;32.56
51081;BME280;37130;55.670;37.596;2023-09-07T10:08:03;100168.53;;;21.24;32.78
51081;BME280;37130;55.670;37.596;2023-09-07T10:10:35;100182.22;;;20.89;32.83
51081;BME280;37130;55.670;37.596;2023-09-07T10:13:04;100159.16;;;21.07;33.57
51081;BME280;37130;55.670;37.596;2023-09-07T10:15:32;100176.63;;;21.67;32.33
51081;BME280;37130;55.670;37.596;2023-09-07T10:20:53;100163.31;;;21.97;31.26
51081;BME280;37130;55.670;37.596;2023-09-07T10:23:22;100185.28;;;21.92;31.43
51081;BME280;37130;55.670;37.596;2023-09-07T10:25:52;100178.44;;;21.46;33.34
51081;BME280;37130;55.670;37.596;2023-09-07T10:28:24;100170.69;;;20.98;33.77
51081;BME280;37130;55.670;37.596;2023-09-07T10:31:16;100165.94;;;20.34;33.84
51081;BME280;37130;55.670;37.596;2023-09-07T10:33:46;100101.53;;;19.63;34.67
51081;BME280;37130;55.670;37.596;2023-09-07T10:36:24;100038.84;;;19.05;34.62
51081;BME280;37130;55.670;37.596;2023-09-07T10:38:54;100180.44;;;19.86;33.84
51081;BME280;37130;55.670;37.596;2023-09-07T10:41:22;100081.78;;;19.29;33.84
51081;BME280;37130;55.670;37.596;2023-09-07T10:43:51;100174.91;;;19.88;34.82
51081;BME280;37130;55.670;37.596;2023-09-07T10:46:21;100172.81;;;19.80;35.31
51081;BME280;37130;55.670;37.596;2023-09-07T10:48:53;100173.88;;;19.66;34.76
51081;BME280;37130;55.670;37.596;2023-09-07T10:51:21;100159.13;;;19.72;34.64
51081;BME280;37130;55.670;37.596;2023-09-07T10:53:48;100157.59;;;19.92;35.29
51081;BME280;37130;55.670;37.596;2023-09-07T10:56:16;100152.00;;;20.29;36.52
51081;BME280;37130;55.670;37.596;2023-09-07T10:58:43;100133.66;;;20.11;34.35
51081;BME280;37130;55.670;37.596;2023-09-07T11:01:11;100134.13;;;19.94;33.21
51081;BME280;37130;55.670;37.596;2023-09-07T11:03:42;100095.75;;;19.45;33.56
51081;BME280;37130;55.670;37.596;2023-09-07T11:06:14;100151.22;;;19.58;33.94
51081;BME280;37130;55.670;37.596;2023-09-07T11:08:42;100183.00;;;19.64;34.76
51081;BME280;37130;55.670;37.596;2023-09-07T11:11:09;100163.44;;;19.62;34.14
51081;BME280;37130;55.670;37.596;2023-09-07T11:13:37;100162.47;;;19.87;34.19
51081;BME280;37130;55.670;37.596;2023-09-07T11:16:07;100153.09;;;20.26;34.71
51081;BME280;37130;55.670;37.596;2023-09-07T11:18:36;100159.00;;;20.54;34.18
51081;BME280;37130;55.670;37.596;2023-09-07T11:21:03;100156.19;;;20.55;34.26
51081;BME280;37130;55.670;37.596;2023-09-07T11:23:32;100166.78;;;20.46;35.33
51081;BME280;37130;55.670;37.596;2023-09-07T11:26:07;100143.31;;;20.14;35.40
51081;BME280;37130;55.670;37.596;2023-09-07T11:28:34;100160.91;;;20.41;35.24
51081;BME280;37130;55.670;37.596;2023-09-07T11:31:02;100148.31;;;20.30;35.20
51081;BME280;37130;55.670;37.596;2023-09-07T11:33:32;100132.06;;;19.98;35.51
51081;BME280;37130;55.670;37.596;2023-09-07T11:36:02;100020.59;;;18.86;35.42
51081;BME280;37130;55.670;37.596;2023-09-07T11:38:35;100172.81;;;19.45;36.14
51081;BME280;37130;55.670;37.596;2023-09-07T11:41:03;100175.81;;;19.40;36.35
51081;BME280;37130;55.670;37.596;2023-09-07T11:43:31;100161.44;;;19.41;36.19
51081;BME280;37130;55.670;37.596;2023-09-07T11:46:02;100149.75;;;19.54;36.74
51081;BME280;37130;55.670;37.596;2023-09-07T11:48:31;100152.66;;;19.51;35.69
51081;BME280;37130;55.670;37.596;2023-09-07T11:51:00;100159.53;;;19.31;36.36
51081;BME280;37130;55.670;37.596;2023-09-07T11:53:28;100060.41;;;18.55;36.47
51081;BME280;37130;55.670;37.596;2023-09-07T11:55:56;100144.41;;;18.81;36.69
51081;BME280;37130;55.670;37.596;2023-09-07T11:58:25;100157.94;;;18.54;37.15
51081;BME280;37130;55.670;37.596;2023-09-07T12:00:56;100131.94;;;18.05;37.35
51081;BME280;37130;55.670;37.596;2023-09-07T12:03:24;100154.88;;;18.22;38.01
51081;BME280;37130;55.670;37.596;2023-09-07T12:05:51;100139.09;;;18.17;37.63
51081;BME280;37130;55.670;37.596;2023-09-07T12:08:19;100160.53;;;18.43;37.40
51081;BME280;37130;55.670;37.596;2023-09-07T12:10:46;100148.00;;;18.31;36.91
51081;BME280;37130;55.670;37.596;2023-09-07T12:13:14;100117.34;;;18.09;36.22
51081;BME280;37130;55.670;37.596;2023-09-07T12:15:41;100149.19;;;18.39;36.18
51081;BME280;37130;55.670;37.596;2023-09-07T12:18:08;100126.44;;;18.45;36.54
51081;BME280;37130;55.670;37.596;2023-09-07T12:20:36;100129.03;;;18.34;36.31
51081;BME280;37130;55.670;37.596;2023-09-07T12:23:03;100144.59;;;18.29;36.99
51081;BME280;37130;55.670;37.596;2023-09-07T12:25:32;100121.84;;;17.96;38.17
51081;BME280;37130;55.670;37.596;2023-09-07T12:27:59;100149.81;;;18.30;37.54
51081;BME280;37130;55.670;37.596;2023-09-07T12:30:26;100152.06;;;18.36;36.99
51081;BME280;37130;55.670;37.596;2023-09-07T12:32:54;100040.03;;;17.52;35.89
51081;BME280;37130;55.670;37.596;2023-09-07T12:35:21;100141.06;;;18.03;37.22
51081;BME280;37130;55.670;37.596;2023-09-07T12:37:49;100064.69;;;17.57;37.69
51081;BME280;37130;55.670;37.596;2023-09-07T12:40:17;100143.94;;;18.12;36.64
51081;BME280;37130;55.670;37.596;2023-09-07T12:42:45;100136.44;;;18.05;38.09
51081;BME280;37130;55.670;37.596;2023-09-07T12:45:13;99959.50;;;17.29;37.53
51081;BME280;37130;55.670;37.596;2023-09-07T12:47:43;100127.41;;;18.81;36.25
51081;BME280;37130;55.670;37.596;2023-09-07T12:50:11;100130.81;;;19.20;35.79
51081;BME280;37130;55.670;37.596;2023-09-07T12:52:38;100125.63;;;19.41;35.08
51081;BME280;37130;55.670;37.596;2023-09-07T12:55:06;100039.00;;;19.15;35.22
51081;BME280;37130;55.670;37.596;2023-09-07T12:57:34;99998.94;;;19.00;35.21